sensor_id;sensor_type;location;lat;lon;timestamp;pressure;altitude;pressure_sealevel;temperature;humidity
47280;BME280;34064;44.942;0.008;2023-02-19T00:01:36;100162.22;;;10.71;51.80
47280;BME280;34064;44.942;0.008;2023-02-19T00:04:13;100150.81;;;10.69;52.11
47280;BME280;34064;44.942;0.008;2023-02-19T00:06:42;100158.09;;;10.66;52.12
47280;BME280;34064;44.942;0.008;2023-02-19T00:09:15;100168.75;;;10.66;52.14
47280;BME280;34064;44.942;0.008;2023-02-19T00:11:43;100163.44;;;10.66;51.74
47280;BME280;34064;44.942;0.008;2023-02-19T00:14:16;100161.53;;;10.68;51.80
47280;BME280;34064;44.942;0.008;2023-02-19T00:16:44;100152.72;;;10.67;51.88
47280;BME280;34064;44.942;0.008;2023-02-19T00:19:17;100150.06;;;10.67;51.80
47280;BME280;34064;44.942;0.008;2023-02-19T00:21:45;100143.88;;;10.67;51.92
47280;BME280;34064;44.942;0.008;2023-02-19T00:24:13;100146.69;;;10.64;52.45
47280;BME280;34064;44.942;0.008;2023-02-19T00:26:42;100152.38;;;10.57;52.30
47280;BME280;34064;44.942;0.008;2023-02-19T00:29:15;100159.28;;;10.44;53.22
47280;BME280;34064;44.942;0.008;2023-02-19T00:31:43;100164.00;;;10.39;52.52
47280;BME280;34064;44.942;0.008;2023-02-19T00:34:12;100163.38;;;10.34;52.45
47280;BME280;34064;44.942;0.008;2023-02-19T00:36:40;100163.69;;;10.27;52.75
47280;BME280;34064;44.942;0.008;2023-02-19T00:39:09;100161.28;;;10.23;53.05
47280;BME280;34064;44.942;0.008;2023-02-19T00:41:37;100160.50;;;10.21;52.85
47280;BME280;34064;44.942;0.008;2023-02-19T00:44:06;100154.50;;;10.17;53.08
47280;BME280;34064;44.942;0.008;2023-02-19T00:46:35;100159.97;;;10.14;52.85
47280;BME280;34064;44.942;0.008;2023-02-19T00:49:04;100146.94;;;10.09;53.20
47280;BME280;34064;44.942;0.008;2023-02-19T00:51:35;100145.28;;;10.07;52.90
47280;BME280;34064;44.942;0.008;2023-02-19T00:54:03;100151.72;;;10.03;52.91
47280;BME280;34064;44.942;0.008;2023-02-19T00:56:30;100152.75;;;10.00;52.89
47280;BME280;34064;44.942;0.008;2023-02-19T00:58:56;100148.38;;;9.99;52.66
47280;BME280;34064;44.942;0.008;2023-02-19T01:01:23;100153.75;;;9.97;52.64
47280;BME280;34064;44.942;0.008;2023-02-19T01:03:49;100150.25;;;9.97;52.81
47280;BME280;34064;44.942;0.008;2023-02-19T01:06:17;100140.66;;;9.94;52.84
47280;BME280;34064;44.942;0.008;2023-02-19T01:08:44;100146.91;;;9.93;53.23
47280;BME280;34064;44.942;0.008;2023-02-19T01:11:11;100162.03;;;9.91;53.26
47280;BME280;34064;44.942;0.008;2023-02-19T01:13:39;100159.63;;;9.87;53.08
47280;BME280;34064;44.942;0.008;2023-02-19T01:16:12;100166.97;;;9.81;53.01
47280;BME280;34064;44.942;0.008;2023-02-19T01:18:40;100155.63;;;9.78;52.97
47280;BME280;34064;44.942;0.008;2023-02-19T01:21:11;100154.88;;;9.76;53.27
47280;BME280;34064;44.942;0.008;2023-02-19T01:23:38;100153.97;;;9.77;52.71
47280;BME280;34064;44.942;0.008;2023-02-19T01:26:07;100157.53;;;9.76;52.93
47280;BME280;34064;44.942;0.008;2023-02-19T01:28:35;100155.03;;;9.73;52.75
47280;BME280;34064;44.942;0.008;2023-02-19T01:31:07;100159.56;;;9.71;52.67
47280;BME280;34064;44.942;0.008;2023-02-19T01:33:35;100158.78;;;9.68;52.81
47280;BME280;34064;44.942;0.008;2023-02-19T01:36:09;100159.75;;;9.67;52.89
47280;BME280;34064;44.942;0.008;2023-02-19T01:38:36;100163.47;;;9.63;53.27
47280;BME280;34064;44.942;0.008;2023-02-19T01:41:05;100162.63;;;9.63;52.91
47280;BME280;34064;44.942;0.008;2023-02-19T01:43:34;100160.91;;;9.62;52.93
47280;BME280;34064;44.942;0.008;2023-02-19T01:46:00;100160.97;;;9.60;53.14
47280;BME280;34064;44.942;0.008;2023-02-19T01:48:37;100169.09;;;9.57;53.06
47280;BME280;34064;44.942;0.008;2023-02-19T01:51:11;100170.25;;;9.51;52.94
47280;BME280;34064;44.942;0.008;2023-02-19T01:53:45;100174.00;;;9.47;53.16
47280;BME280;34064;44.942;0.008;2023-02-19T01:56:15;100170.78;;;9.41;53.45
47280;BME280;34064;44.942;0.008;2023-02-19T01:58:44;100175.34;;;9.39;53.35
47280;BME280;34064;44.942;0.008;2023-02-19T02:01:15;100168.34;;;9.36;53.54
47280;BME280;34064;44.942;0.008;2023-02-19T02:03:43;100165.88;;;9.33;53.46
47280;BME280;34064;44.942;0.008;2023-02-19T02:06:25;100169.47;;;9.32;53.37
47280;BME280;34064;44.942;0.008;2023-02-19T02:08:56;100161.50;;;9.32;53.18
47280;BME280;34064;44.942;0.008;2023-02-19T02:11:49;100159.00;;;9.29;53.22
47280;BME280;34064;44.942;0.008;2023-02-19T02:14:20;100167.19;;;9.24;53.58
47280;BME280;34064;44.942;0.008;2023-02-19T02:17:03;100163.81;;;9.20;53.70
47280;BME280;34064;44.942;0.008;2023-02-19T02:25:31;100160.34;;;9.01;53.97
47280;BME280;34064;44.942;0.008;2023-02-19T02:28:28;100168.53;;;8.96;54.15
47280;BME280;34064;44.942;0.008;2023-02-19T02:31:22;100158.25;;;8.90;53.96
47280;BME280;34064;44.942;0.008;2023-02-19T02:33:58;100158.38;;;8.87;53.94
47280;BME280;34064;44.942;0.008;2023-02-19T02:36:33;100159.38;;;8.84;53.96
47280;BME280;34064;44.942;0.008;2023-02-19T02:39:02;100151.53;;;8.83;53.75
47280;BME280;34064;44.942;0.008;2023-02-19T02:41:32;100155.94;;;8.82;53.48
47280;BME280;34064;44.942;0.008;2023-02-19T02:43:59;100153.22;;;8.84;53.49
47280;BME280;34064;44.942;0.008;2023-02-19T02:46:32;100145.34;;;8.82;53.94
47280;BME280;34064;44.942;0.008;2023-02-19T02:49:04;100151.66;;;8.80;53.94
47280;BME280;34064;44.942;0.008;2023-02-19T02:51:42;100145.78;;;8.73;54.04
47280;BME280;34064;44.942;0.008;2023-02-19T02:54:20;100149.53;;;8.69;54.02
47280;BME280;34064;44.942;0.008;2023-02-19T02:57:06;100155.03;;;8.64;53.91
47280;BME280;34064;44.942;0.008;2023-02-19T02:59:37;100155.19;;;8.61;53.89
47280;BME280;34064;44.942;0.008;2023-02-19T03:02:15;100154.38;;;8.59;54.21
47280;BME280;34064;44.942;0.008;2023-02-19T03:04:50;100151.88;;;8.56;54.09
47280;BME280;34064;44.942;0.008;2023-02-19T03:10:32;100166.41;;;8.47;54.15
47280;BME280;34064;44.942;0.008;2023-02-19T03:12:59;100169.28;;;8.41;54.11
47280;BME280;34064;44.942;0.008;2023-02-19T03:15:57;100174.81;;;8.36;54.38
47280;BME280;34064;44.942;0.008;2023-02-19T03:18:50;100171.22;;;8.37;54.09
47280;BME280;34064;44.942;0.008;2023-02-19T03:21:40;100172.09;;;8.38;53.91
47280;BME280;34064;44.942;0.008;2023-02-19T03:24:10;100161.50;;;8.38;54.25
47280;BME280;34064;44.942;0.008;2023-02-19T03:26:58;100167.94;;;8.32;54.68
47280;BME280;34064;44.942;0.008;2023-02-19T03:29:31;100173.25;;;8.32;54.39
47280;BME280;34064;44.942;0.008;2023-02-19T03:32:28;100173.25;;;8.32;54.23
47280;BME280;34064;44.942;0.008;2023-02-19T03:35:01;100182.19;;;8.30;54.14
47280;BME280;34064;44.942;0.008;2023-02-19T03:40:28;100178.03;;;8.24;54.00
47280;BME280;34064;44.942;0.008;2023-02-19T03:45:32;100178.16;;;8.21;54.53
47280;BME280;34064;44.942;0.008;2023-02-19T03:53:31;100174.88;;;8.16;54.66
47280;BME280;34064;44.942;0.008;2023-02-19T03:56:12;100177.75;;;8.09;54.75
47280;BME280;34064;44.942;0.008;2023-02-19T04:01:44;100201.06;;;8.01;54.93
47280;BME280;34064;44.942;0.008;2023-02-19T04:04:16;100202.19;;;7.95;54.58
47280;BME280;34064;44.942;0.008;2023-02-19T04:06:48;100199.63;;;7.94;54.44
47280;BME280;34064;44.942;0.008;2023-02-19T04:09:20;100201.28;;;7.96;54.34
47280;BME280;34064;44.942;0.008;2023-02-19T04:11:49;100201.22;;;7.98;54.27
47280;BME280;34064;44.942;0.008;2023-02-19T04:17:23;100202.19;;;7.95;54.56
47280;BME280;34064;44.942;0.008;2023-02-19T04:19:52;100200.66;;;7.90;54.77
47280;BME280;34064;44.942;0.008;2023-02-19T04:22:21;100205.44;;;7.81;54.89
47280;BME280;34064;44.942;0.008;2023-02-19T04:24:52;100199.34;;;7.79;54.55
47280;BME280;34064;44.942;0.008;2023-02-19T04:27:20;100206.50;;;7.77;54.73
47280;BME280;34064;44.942;0.008;2023-02-19T04:29:46;100205.72;;;7.75;54.82
47280;BME280;34064;44.942;0.008;2023-02-19T04:32:13;100218.22;;;7.72;54.70
47280;BME280;34064;44.942;0.008;2023-02-19T04:34:40;100214.84;;;7.68;54.96
47280;BME280;34064;44.942;0.008;2023-02-19T04:37:06;100207.81;;;7.67;54.68
47280;BME280;34064;44.942;0.008;2023-02-19T04:39:33;100219.31;;;7.66;54.34
47280;BME280;34064;44.942;0.008;2023-02-19T04:41:59;100218.53;;;7.64;54.81
47280;BME280;34064;44.942;0.008;2023-02-19T04:44:25;100218.41;;;7.67;54.55
47280;BME280;34064;44.942;0.008;2023-02-19T04:46:53;100210.50;;;7.65;54.63
47280;BME280;34064;44.942;0.008;2023-02-19T04:49:21;100214.09;;;7.64;55.07
47280;BME280;34064;44.942;0.008;2023-02-19T04:51:48;100212.38;;;7.63;55.18
47280;BME280;34064;44.942;0.008;2023-02-19T04:54:15;100223.00;;;7.62;55.01
47280;BME280;34064;44.942;0.008;2023-02-19T04:56:42;100222.72;;;7.47;55.58
47280;BME280;34064;44.942;0.008;2023-02-19T04:59:10;100223.72;;;7.45;55.39
47280;BME280;34064;44.942;0.008;2023-02-19T05:01:37;100229.94;;;7.44;54.97
47280;BME280;34064;44.942;0.008;2023-02-19T05:04:04;100228.41;;;7.38;55.20
47280;BME280;34064;44.942;0.008;2023-02-19T05:06:30;100224.03;;;7.37;55.34
47280;BME280;34064;44.942;0.008;2023-02-19T05:08:57;100239.22;;;7.32;55.33
47280;BME280;34064;44.942;0.008;2023-02-19T05:11:25;100235.78;;;7.30;55.14
47280;BME280;34064;44.942;0.008;2023-02-19T05:13:53;100241.19;;;7.27;55.01
47280;BME280;34064;44.942;0.008;2023-02-19T05:16:19;100242.22;;;7.23;55.20
47280;BME280;34064;44.942;0.008;2023-02-19T05:18:46;100245.00;;;7.20;54.90
47280;BME280;34064;44.942;0.008;2023-02-19T05:21:13;100240.75;;;7.15;55.28
47280;BME280;34064;44.942;0.008;2023-02-19T05:23:40;100246.94;;;7.14;55.08
47280;BME280;34064;44.942;0.008;2023-02-19T05:26:20;100253.16;;;7.13;54.99
47280;BME280;34064;44.942;0.008;2023-02-19T05:28:49;100247.81;;;7.15;55.23
47280;BME280;34064;44.942;0.008;2023-02-19T05:31:16;100248.66;;;7.15;55.43
47280;BME280;34064;44.942;0.008;2023-02-19T05:33:42;100246.75;;;7.19;55.28
47280;BME280;34064;44.942;0.008;2023-02-19T05:36:12;100241.47;;;7.19;55.33
47280;BME280;34064;44.942;0.008;2023-02-19T05:38:39;100246.72;;;7.21;55.29
47280;BME280;34064;44.942;0.008;2023-02-19T05:41:15;100241.28;;;7.24;55.67
47280;BME280;34064;44.942;0.008;2023-02-19T05:43:43;100243.16;;;7.22;56.10
47280;BME280;34064;44.942;0.008;2023-02-19T05:46:14;100253.59;;;7.25;56.28
47280;BME280;34064;44.942;0.008;2023-02-19T05:48:41;100238.66;;;7.24;55.89
47280;BME280;34064;44.942;0.008;2023-02-19T05:51:15;100235.91;;;7.27;56.04
47280;BME280;34064;44.942;0.008;2023-02-19T05:53:44;100249.84;;;7.30;56.10
47280;BME280;34064;44.942;0.008;2023-02-19T05:56:34;100249.81;;;7.32;56.49
47280;BME280;34064;44.942;0.008;2023-02-19T05:59:14;100258.50;;;7.34;55.94
47280;BME280;34064;44.942;0.008;2023-02-19T06:01:43;100251.38;;;7.36;56.69
47280;BME280;34064;44.942;0.008;2023-02-19T06:04:14;100248.56;;;7.41;57.08
47280;BME280;34064;44.942;0.008;2023-02-19T06:06:46;100242.16;;;7.46;56.53
47280;BME280;34064;44.942;0.008;2023-02-19T06:09:14;100243.63;;;7.54;56.55
47280;BME280;34064;44.942;0.008;2023-02-19T06:11:41;100243.44;;;7.58;56.67
47280;BME280;34064;44.942;0.008;2023-02-19T06:14:12;100229.97;;;7.64;57.05
47280;BME280;34064;44.942;0.008;2023-02-19T06:16:40;100230.56;;;7.71;56.28
47280;BME280;34064;44.942;0.008;2023-02-19T06:19:08;100223.31;;;7.76;56.43
47280;BME280;34064;44.942;0.008;2023-02-19T06:21:35;100233.63;;;7.83;56.40
47280;BME280;34064;44.942;0.008;2023-02-19T06:24:07;100224.63;;;7.87;56.65
47280;BME280;34064;44.942;0.008;2023-02-19T06:26:35;100231.03;;;7.81;58.63
47280;BME280;34064;44.942;0.008;2023-02-19T06:29:03;100228.31;;;7.83;57.45
47280;BME280;34064;44.942;0.008;2023-02-19T06:31:30;100231.88;;;7.81;58.07
47280;BME280;34064;44.942;0.008;2023-02-19T06:33:58;100230.84;;;7.86;57.02
47280;BME280;34064;44.942;0.008;2023-02-19T06:36:26;100227.13;;;7.90;57.05
47280;BME280;34064;44.942;0.008;2023-02-19T06:38:53;100221.72;;;7.93;57.46
47280;BME280;34064;44.942;0.008;2023-02-19T06:41:20;100222.63;;;7.92;57.95
47280;BME280;34064;44.942;0.008;2023-02-19T06:43:47;100221.78;;;7.91;58.99
47280;BME280;34064;44.942;0.008;2023-02-19T06:46:15;100220.88;;;7.92;59.09
47280;BME280;34064;44.942;0.008;2023-02-19T06:48:43;100229.53;;;7.96;58.86
47280;BME280;34064;44.942;0.008;2023-02-19T06:51:15;100225.97;;;7.97;58.49
47280;BME280;34064;44.942;0.008;2023-02-19T06:53:44;100226.88;;;7.96;58.86
47280;BME280;34064;44.942;0.008;2023-02-19T06:56:33;100217.16;;;7.96;59.43
47280;BME280;34064;44.942;0.008;2023-02-19T06:59:03;100223.38;;;7.95;59.80
47280;BME280;34064;44.942;0.008;2023-02-19T07:01:31;100228.59;;;7.97;59.29
47280;BME280;34064;44.942;0.008;2023-02-19T07:03:58;100228.59;;;7.97;59.31
47280;BME280;34064;44.942;0.008;2023-02-19T07:06:25;100236.41;;;8.00;59.13
47280;BME280;34064;44.942;0.008;2023-02-19T07:08:53;100232.81;;;8.01;59.33
47280;BME280;34064;44.942;0.008;2023-02-19T07:11:20;100241.69;;;8.00;59.54
47280;BME280;34064;44.942;0.008;2023-02-19T07:13:46;100248.84;;;7.98;59.81
47280;BME280;34064;44.942;0.008;2023-02-19T07:16:13;100247.84;;;8.01;59.55
47280;BME280;34064;44.942;0.008;2023-02-19T07:18:40;100245.13;;;8.02;59.51
47280;BME280;34064;44.942;0.008;2023-02-19T07:21:11;100239.72;;;8.05;59.86
47280;BME280;34064;44.942;0.008;2023-02-19T07:23:38;100240.44;;;8.09;59.46
47280;BME280;34064;44.942;0.008;2023-02-19T07:26:08;100234.16;;;8.11;59.17
47280;BME280;34064;44.942;0.008;2023-02-19T07:28:36;100232.31;;;8.14;59.45
47280;BME280;34064;44.942;0.008;2023-02-19T07:31:03;100239.13;;;8.19;59.39
47280;BME280;34064;44.942;0.008;2023-02-19T07:33:30;100244.22;;;8.24;59.35
47280;BME280;34064;44.942;0.008;2023-02-19T07:35:56;100244.84;;;8.29;59.43
47280;BME280;34064;44.942;0.008;2023-02-19T07:38:24;100250.09;;;8.31;59.45
47280;BME280;34064;44.942;0.008;2023-02-19T07:40:55;100257.03;;;8.33;59.92
47280;BME280;34064;44.942;0.008;2023-02-19T07:43:25;100256.13;;;8.34;60.24
47280;BME280;34064;44.942;0.008;2023-02-19T07:45:52;100252.34;;;8.40;59.55
47280;BME280;34064;44.942;0.008;2023-02-19T07:48:18;100245.13;;;8.43;59.66
47280;BME280;34064;44.942;0.008;2023-02-19T07:50:55;100244.00;;;8.49;59.49
47280;BME280;34064;44.942;0.008;2023-02-19T07:53:22;100244.56;;;8.56;59.50
47280;BME280;34064;44.942;0.008;2023-02-19T07:55:49;100247.91;;;8.61;59.21
47280;BME280;34064;44.942;0.008;2023-02-19T07:58:16;100254.75;;;8.65;59.50
47280;BME280;34064;44.942;0.008;2023-02-19T08:00:42;100258.91;;;8.71;59.80
47280;BME280;34064;44.942;0.008;2023-02-19T08:03:09;100259.59;;;8.76;59.59
47280;BME280;34064;44.942;0.008;2023-02-19T08:05:40;100253.16;;;8.82;59.98
47280;BME280;34064;44.942;0.008;2023-02-19T08:08:08;100250.19;;;8.88;59.59
47280;BME280;34064;44.942;0.008;2023-02-19T08:10:35;100261.38;;;8.95;60.38
47280;BME280;34064;44.942;0.008;2023-02-19T08:13:21;100264.66;;;9.00;60.19
47280;BME280;34064;44.942;0.008;2023-02-19T08:15:49;100270.66;;;9.03;61.70
47280;BME280;34064;44.942;0.008;2023-02-19T08:18:17;100284.50;;;9.10;60.97
47280;BME280;34064;44.942;0.008;2023-02-19T08:20:43;100280.72;;;9.16;60.79
47280;BME280;34064;44.942;0.008;2023-02-19T08:23:10;100296.19;;;9.25;61.15
47280;BME280;34064;44.942;0.008;2023-02-19T08:25:38;100299.50;;;9.30;61.92
47280;BME280;34064;44.942;0.008;2023-02-19T08:28:05;100299.19;;;9.36;61.78
47280;BME280;34064;44.942;0.008;2023-02-19T08:30:33;100297.03;;;9.45;62.46
47280;BME280;34064;44.942;0.008;2023-02-19T08:33:00;100309.13;;;9.50;62.83
47280;BME280;34064;44.942;0.008;2023-02-19T08:35:27;100289.09;;;9.62;63.51
47280;BME280;34064;44.942;0.008;2023-02-19T08:37:57;100282.63;;;9.68;63.33
47280;BME280;34064;44.942;0.008;2023-02-19T08:40:27;100284.75;;;9.79;64.25
47280;BME280;34064;44.942;0.008;2023-02-19T08:42:53;100278.13;;;9.88;63.83
47280;BME280;34064;44.942;0.008;2023-02-19T08:45:20;100278.53;;;9.97;63.60
47280;BME280;34064;44.942;0.008;2023-02-19T08:47:46;100289.47;;;10.09;65.12
47280;BME280;34064;44.942;0.008;2023-02-19T08:50:12;100288.19;;;10.16;63.91
47280;BME280;34064;44.942;0.008;2023-02-19T08:52:39;100282.25;;;10.28;64.37
47280;BME280;34064;44.942;0.008;2023-02-19T08:55:06;100280.88;;;10.39;64.73
47280;BME280;34064;44.942;0.008;2023-02-19T08:57:35;100279.06;;;10.39;65.06
47280;BME280;34064;44.942;0.008;2023-02-19T09:00:04;100272.59;;;10.45;64.47
47280;BME280;34064;44.942;0.008;2023-02-19T09:02:31;100281.19;;;10.50;64.45
47280;BME280;34064;44.942;0.008;2023-02-19T09:04:57;100274.50;;;10.59;64.75
47280;BME280;34064;44.942;0.008;2023-02-19T09:07:24;100281.53;;;10.60;65.54
47280;BME280;34064;44.942;0.008;2023-02-19T09:09:50;100278.25;;;10.72;65.04
47280;BME280;34064;44.942;0.008;2023-02-19T09:12:17;100269.50;;;10.86;64.70
47280;BME280;34064;44.942;0.008;2023-02-19T09:14:43;100277.94;;;10.95;66.06
47280;BME280;34064;44.942;0.008;2023-02-19T09:17:10;100269.28;;;11.07;65.10
47280;BME280;34064;44.942;0.008;2023-02-19T09:19:36;100266.09;;;11.16;64.97
47280;BME280;34064;44.942;0.008;2023-02-19T09:22:04;100257.44;;;11.29;64.36
47280;BME280;34064;44.942;0.008;2023-02-19T09:24:31;100246.28;;;11.38;64.26
47280;BME280;34064;44.942;0.008;2023-02-19T09:26:57;100243.69;;;11.52;64.21
47280;BME280;34064;44.942;0.008;2023-02-19T09:29:25;100247.63;;;11.61;64.36
47280;BME280;34064;44.942;0.008;2023-02-19T09:31:56;100245.38;;;11.69;64.48
47280;BME280;34064;44.942;0.008;2023-02-19T09:34:24;100245.69;;;11.79;64.49
47280;BME280;34064;44.942;0.008;2023-02-19T09:36:51;100246.06;;;11.88;64.41
47280;BME280;34064;44.942;0.008;2023-02-19T09:39:18;100242.19;;;11.93;64.54
47280;BME280;34064;44.942;0.008;2023-02-19T09:41:53;100242.63;;;12.01;64.39
47280;BME280;34064;44.942;0.008;2023-02-19T09:44:36;100243.78;;;12.12;64.65
47280;BME280;34064;44.942;0.008;2023-02-19T09:47:20;100244.28;;;12.19;64.27
47280;BME280;34064;44.942;0.008;2023-02-19T09:49:50;100239.34;;;12.27;64.22
47280;BME280;34064;44.942;0.008;2023-02-19T09:52:42;100246.00;;;12.34;64.49
47280;BME280;34064;44.942;0.008;2023-02-19T09:57:56;100234.41;;;12.50;64.28
47280;BME280;34064;44.942;0.008;2023-02-19T10:00:32;100235.75;;;12.57;64.38
47280;BME280;34064;44.942;0.008;2023-02-19T10:03:05;100243.56;;;12.60;64.22
47280;BME280;34064;44.942;0.008;2023-02-19T10:05:33;100238.13;;;12.61;64.47
47280;BME280;34064;44.942;0.008;2023-02-19T10:08:02;100246.69;;;12.67;64.30
47280;BME280;34064;44.942;0.008;2023-02-19T10:10:32;100236.41;;;12.75;64.18
47280;BME280;34064;44.942;0.008;2023-02-19T10:13:18;100232.59;;;12.79;64.33
47280;BME280;34064;44.942;0.008;2023-02-19T10:15:51;100226.78;;;12.87;64.05
47280;BME280;34064;44.942;0.008;2023-02-19T10:18:31;100218.72;;;13.01;64.11
47280;BME280;34064;44.942;0.008;2023-02-19T10:21:01;100215.69;;;13.07;64.13
47280;BME280;34064;44.942;0.008;2023-02-19T10:23:27;100216.03;;;13.16;64.12
47280;BME280;34064;44.942;0.008;2023-02-19T10:25:58;100226.13;;;13.25;64.12
47280;BME280;34064;44.942;0.008;2023-02-19T10:28:35;100210.56;;;13.32;64.21
47280;BME280;34064;44.942;0.008;2023-02-19T10:31:04;100217.69;;;13.31;63.95
47280;BME280;34064;44.942;0.008;2023-02-19T10:33:32;100220.94;;;13.36;64.10
47280;BME280;34064;44.942;0.008;2023-02-19T10:36:05;100218.09;;;13.39;63.98
47280;BME280;34064;44.942;0.008;2023-02-19T10:38:35;100219.59;;;13.44;64.03
47280;BME280;34064;44.942;0.008;2023-02-19T10:41:14;100227.63;;;13.44;64.14
47280;BME280;34064;44.942;0.008;2023-02-19T10:44:14;100229.22;;;13.46;64.12
47280;BME280;34064;44.942;0.008;2023-02-19T10:46:44;100227.19;;;13.50;64.09
47280;BME280;34064;44.942;0.008;2023-02-19T10:49:32;100239.06;;;13.46;64.31
47280;BME280;34064;44.942;0.008;2023-02-19T10:52:14;100231.88;;;13.46;64.47
47280;BME280;34064;44.942;0.008;2023-02-19T10:54:43;100225.47;;;13.49;64.22
47280;BME280;34064;44.942;0.008;2023-02-19T10:57:29;100225.09;;;13.55;64.56
47280;BME280;34064;44.942;0.008;2023-02-19T11:02:44;100227.00;;;13.53;64.48
47280;BME280;34064;44.942;0.008;2023-02-19T11:07:42;100220.41;;;13.59;64.26
47280;BME280;34064;44.942;0.008;2023-02-19T11:10:20;100224.88;;;13.58;64.37
47280;BME280;34064;44.942;0.008;2023-02-19T11:12:48;100219.53;;;13.58;64.29
47280;BME280;34064;44.942;0.008;2023-02-19T11:15:28;100213.03;;;13.62;64.41
47280;BME280;34064;44.942;0.008;2023-02-19T11:18:21;100215.72;;;13.62;64.50
47280;BME280;34064;44.942;0.008;2023-02-19T11:21:06;100204.81;;;13.65;64.35
47280;BME280;34064;44.942;0.008;2023-02-19T11:26:14;100201.88;;;13.83;64.34
47280;BME280;34064;44.942;0.008;2023-02-19T11:28:41;100186.19;;;13.91;64.23
47280;BME280;34064;44.942;0.008;2023-02-19T11:33:58;100170.66;;;14.09;63.84
47280;BME280;34064;44.942;0.008;2023-02-19T11:36:29;100163.97;;;14.16;63.81
47280;BME280;34064;44.942;0.008;2023-02-19T11:38:57;100159.97;;;14.22;63.64
47280;BME280;34064;44.942;0.008;2023-02-19T12:00:28;100099.72;;;14.92;62.61
47280;BME280;34064;44.942;0.008;2023-02-19T12:03:19;100103.66;;;15.00;62.46
47280;BME280;34064;44.942;0.008;2023-02-19T12:11:51;100084.16;;;15.22;62.26
47280;BME280;34064;44.942;0.008;2023-02-19T12:14:43;100076.50;;;15.28;61.98
47280;BME280;34064;44.942;0.008;2023-02-19T12:26:07;100046.28;;;15.62;61.24
47280;BME280;34064;44.942;0.008;2023-02-19T12:31:46;100045.78;;;15.68;61.17
47280;BME280;34064;44.942;0.008;2023-02-19T12:40:13;100027.69;;;15.72;61.04
47280;BME280;34064;44.942;0.008;2023-02-19T12:45:43;100013.19;;;15.74;61.01
47280;BME280;34064;44.942;0.008;2023-02-19T12:48:19;100015.97;;;15.73;61.09
47280;BME280;34064;44.942;0.008;2023-02-19T12:50:52;100006.72;;;15.77;60.86
47280;BME280;34064;44.942;0.008;2023-02-19T12:55:55;100007.34;;;15.81;60.68
47280;BME280;34064;44.942;0.008;2023-02-19T12:58:44;99989.44;;;15.81;60.82
47280;BME280;34064;44.942;0.008;2023-02-19T13:01:19;99993.19;;;15.79;60.45
47280;BME280;34064;44.942;0.008;2023-02-19T13:06:54;99985.16;;;15.79;60.46
47280;BME280;34064;44.942;0.008;2023-02-19T13:09:32;99978.84;;;15.80;60.36
47280;BME280;34064;44.942;0.008;2023-02-19T13:14:45;99980.53;;;15.81;60.23
47280;BME280;34064;44.942;0.008;2023-02-19T13:17:27;99980.19;;;15.85;60.40
47280;BME280;34064;44.942;0.008;2023-02-19T13:20:03;99979.00;;;15.89;59.96
47280;BME280;34064;44.942;0.008;2023-02-19T13:22:39;99975.44;;;15.89;60.10
47280;BME280;34064;44.942;0.008;2023-02-19T13:25:49;99959.00;;;15.94;60.18
47280;BME280;34064;44.942;0.008;2023-02-19T13:31:56;99957.19;;;15.94;59.74
47280;BME280;34064;44.942;0.008;2023-02-19T13:37:15;99950.59;;;15.98;59.77
47280;BME280;34064;44.942;0.008;2023-02-19T13:39:52;99948.78;;;15.99;59.77
47280;BME280;34064;44.942;0.008;2023-02-19T13:42:33;99942.31;;;16.01;59.89
47280;BME280;34064;44.942;0.008;2023-02-19T13:45:03;99945.59;;;16.05;59.60
47280;BME280;34064;44.942;0.008;2023-02-19T13:50:31;99939.63;;;16.13;59.61
47280;BME280;34064;44.942;0.008;2023-02-19T13:52:59;99929.50;;;16.16;59.22
47280;BME280;34064;44.942;0.008;2023-02-19T13:55:44;99930.91;;;16.20;59.30
47280;BME280;34064;44.942;0.008;2023-02-19T14:01:08;99904.59;;;16.26;59.15
47280;BME280;34064;44.942;0.008;2023-02-19T14:03:45;99913.09;;;16.31;59.19
47280;BME280;34064;44.942;0.008;2023-02-19T14:06:12;99906.38;;;16.36;58.94
47280;BME280;34064;44.942;0.008;2023-02-19T14:08:57;99902.09;;;16.45;58.86
47280;BME280;34064;44.942;0.008;2023-02-19T14:19:45;99895.03;;;16.44;58.71
47280;BME280;34064;44.942;0.008;2023-02-19T14:22:46;99890.38;;;16.46;58.57
47280;BME280;34064;44.942;0.008;2023-02-19T14:33:28;99892.00;;;16.37;58.52
47280;BME280;34064;44.942;0.008;2023-02-19T14:36:04;99884.09;;;16.36;58.46
47280;BME280;34064;44.942;0.008;2023-02-19T14:39:39;99882.13;;;16.38;58.23
47280;BME280;34064;44.942;0.008;2023-02-19T14:41:37;99878.97;;;16.33;58.51
47280;BME280;34064;44.942;0.008;2023-02-19T14:44:15;99876.28;;;16.33;58.52
47280;BME280;34064;44.942;0.008;2023-02-19T14:47:07;99876.03;;;16.36;58.43
47280;BME280;34064;44.942;0.008;2023-02-19T14:52:55;99878.72;;;16.36;58.47
47280;BME280;34064;44.942;0.008;2023-02-19T14:55:27;99866.03;;;16.38;58.27
47280;BME280;34064;44.942;0.008;2023-02-19T14:57:57;99869.94;;;16.34;58.28
47280;BME280;34064;44.942;0.008;2023-02-19T15:00:27;99873.59;;;16.33;58.28
47280;BME280;34064;44.942;0.008;2023-02-19T15:02:55;99870.53;;;16.37;58.04
47280;BME280;34064;44.942;0.008;2023-02-19T15:05:34;99866.53;;;16.32;58.16
47280;BME280;34064;44.942;0.008;2023-02-19T15:08:10;99864.84;;;16.31;58.08
47280;BME280;34064;44.942;0.008;2023-02-19T15:10:41;99864.84;;;16.31;58.03
47280;BME280;34064;44.942;0.008;2023-02-19T15:13:09;99866.53;;;16.32;57.93
47280;BME280;34064;44.942;0.008;2023-02-19T15:15:43;99867.53;;;16.31;57.86
47280;BME280;34064;44.942;0.008;2023-02-19T15:18:21;99876.09;;;16.25;58.13
47280;BME280;34064;44.942;0.008;2023-02-19T15:20:49;99869.03;;;16.24;58.21
47280;BME280;34064;44.942;0.008;2023-02-19T15:23:21;99865.22;;;16.26;58.33
47280;BME280;34064;44.942;0.008;2023-02-19T15:25:49;99862.69;;;16.25;58.20
47280;BME280;34064;44.942;0.008;2023-02-19T15:33:26;99856.69;;;16.32;57.99